createdAt,value
2023-03-26T00:01:54.444Z,84.28
2023-03-26T00:04:25.579Z,84.81
2023-03-26T00:06:54.243Z,85.42
2023-03-26T00:09:22.528Z,84.14
2023-03-26T00:11:50.380Z,85.51
2023-03-26T00:14:18.328Z,86.33
2023-03-26T00:16:47.674Z,86.40
2023-03-26T00:19:16.062Z,87.35
2023-03-26T00:21:43.885Z,87.51
2023-03-26T00:24:17.606Z,87.75
2023-03-26T00:26:48.763Z,88.06
2023-03-26T00:29:18.772Z,88.46
2023-03-26T00:31:47.315Z,89.29
2023-03-26T00:34:18.629Z,88.52
2023-03-26T00:36:47.511Z,88.53
2023-03-26T00:39:17.992Z,89.90
2023-03-26T00:41:45.942Z,90.26
2023-03-26T00:44:14.195Z,90.88
2023-03-26T00:46:42.869Z,91.34
2023-03-26T00:49:14.930Z,92.39
2023-03-26T00:51:43.501Z,93.40
2023-03-26T00:54:12.001Z,93.60
2023-03-26T00:56:39.964Z,95.29
2023-03-26T00:59:09.392Z,95.13
2023-03-26T01:01:37.873Z,95.18
2023-03-26T01:04:44.959Z,95.96
2023-03-26T01:07:22.800Z,96.38
2023-03-26T01:09:51.792Z,95.98
2023-03-26T01:12:23.133Z,96.15
2023-03-26T01:14:53.312Z,97.43
2023-03-26T01:17:23.045Z,97.27
2023-03-26T01:20:15.222Z,97.04
2023-03-26T01:22:49.523Z,97.19
2023-03-26T01:25:17.732Z,97.17
2023-03-26T01:27:55.880Z,96.60
2023-03-26T01:30:42.817Z,97.27
2023-03-26T01:33:22.344Z,97.52
2023-03-26T01:36:01.099Z,97.47
2023-03-26T01:38:48.845Z,98.12
2023-03-26T01:41:52.125Z,97.96
2023-03-26T01:44:59.837Z,98.01
2023-03-26T01:47:29.093Z,98.11
2023-03-26T01:49:57.315Z,98.99
2023-03-26T01:52:26.412Z,98.50
2023-03-26T01:54:56.116Z,98.53
2023-03-26T01:57:37.908Z,98.63
2023-03-26T02:00:19.526Z,98.61
2023-03-26T02:02:56.876Z,99.22
2023-03-26T02:05:47.755Z,99.72
2023-03-26T02:08:24.350Z,100.00
2023-03-26T02:10:58.959Z,100.00
2023-03-26T02:13:27.985Z,100.00
2023-03-26T02:16:02.071Z,100.00
2023-03-26T02:18:36.880Z,100.00
2023-03-26T02:21:20.410Z,100.00
2023-03-26T02:23:57.865Z,100.00
2023-03-26T02:26:26.243Z,100.00
2023-03-26T02:28:54.870Z,100.00
2023-03-26T02:31:26.540Z,100.00
2023-03-26T02:33:55.750Z,100.00
2023-03-26T02:36:30.536Z,100.00
2023-03-26T02:39:00.460Z,100.00
2023-03-26T02:41:29.012Z,100.00
2023-03-26T02:43:57.182Z,100.00
2023-03-26T02:46:25.993Z,100.00
2023-03-26T02:48:54.735Z,100.00
2023-03-26T02:51:23.024Z,100.00
2023-03-26T02:53:53.853Z,100.00
2023-03-26T02:56:23.021Z,100.00
2023-03-26T02:58:52.248Z,100.00
2023-03-26T03:01:20.233Z,100.00
2023-03-26T03:03:48.745Z,100.00
2023-03-26T03:06:19.011Z,100.00
2023-03-26T03:08:47.446Z,100.00
2023-03-26T03:11:24.991Z,100.00
2023-03-26T03:13:54.262Z,100.00
2023-03-26T03:16:22.279Z,100.00
2023-03-26T03:18:54.883Z,100.00
2023-03-26T03:21:25.425Z,100.00
2023-03-26T03:24:00.254Z,100.00
2023-03-26T03:26:30.175Z,100.00
2023-03-26T03:28:58.907Z,100.00
2023-03-26T03:31:27.483Z,100.00
2023-03-26T03:33:56.803Z,100.00
2023-03-26T03:36:28.119Z,100.00
2023-03-26T03:39:02.316Z,100.00
2023-03-26T03:41:30.444Z,100.00
2023-03-26T03:43:59.977Z,100.00
2023-03-26T03:46:28.589Z,100.00
2023-03-26T03:48:56.522Z,100.00
2023-03-26T03:51:25.451Z,100.00
2023-03-26T03:53:56.005Z,100.00
2023-03-26T03:56:26.300Z,100.00
2023-03-26T03:58:58.459Z,100.00
2023-03-26T04:01:30.904Z,100.00
2023-03-26T04:03:59.696Z,100.00
2023-03-26T04:06:30.356Z,100.00
2023-03-26T04:08:58.309Z,100.00
2023-03-26T04:11:26.814Z,100.00
2023-03-26T04:13:56.597Z,100.00
2023-03-26T04:16:25.703Z,100.00
2023-03-26T04:18:54.094Z,100.00
2023-03-26T04:21:22.790Z,100.00
2023-03-26T04:23:50.716Z,100.00
2023-03-26T04:26:20.574Z,100.00
2023-03-26T04:28:55.512Z,100.00
2023-03-26T04:31:29.562Z,100.00
2023-03-26T04:34:05.902Z,100.00
2023-03-26T04:36:35.706Z,100.00
2023-03-26T04:39:05.352Z,100.00
2023-03-26T04:41:36.194Z,100.00
2023-03-26T04:44:04.448Z,100.00
2023-03-26T04:46:33.815Z,100.00
2023-03-26T04:49:02.505Z,100.00
2023-03-26T04:51:42.150Z,100.00
2023-03-26T04:54:20.278Z,100.00
2023-03-26T04:56:54.446Z,100.00
2023-03-26T04:59:30.185Z,100.00
2023-03-26T05:02:00.218Z,100.00
2023-03-26T05:04:34.153Z,100.00
2023-03-26T05:07:03.234Z,100.00
2023-03-26T05:09:32.150Z,100.00
2023-03-26T05:12:02.279Z,100.00
2023-03-26T05:14:32.512Z,100.00
2023-03-26T05:17:06.079Z,100.00
2023-03-26T05:19:34.035Z,100.00
2023-03-26T05:22:03.312Z,100.00
2023-03-26T05:24:33.085Z,100.00
2023-03-26T05:27:01.333Z,100.00
2023-03-26T05:29:29.655Z,100.00
2023-03-26T05:31:57.500Z,100.00
2023-03-26T05:34:27.141Z,100.00
2023-03-26T05:36:55.526Z,100.00
2023-03-26T05:39:26.581Z,100.00
2023-03-26T05:41:56.380Z,100.00
2023-03-26T05:44:25.693Z,100.00
2023-03-26T05:46:53.643Z,100.00
2023-03-26T05:49:22.371Z,100.00
2023-03-26T05:51:50.592Z,100.00
2023-03-26T05:54:18.938Z,100.00
2023-03-26T05:56:59.264Z,100.00
2023-03-26T05:59:32.330Z,100.00
2023-03-26T06:02:02.375Z,100.00
2023-03-26T06:04:32.244Z,100.00
2023-03-26T06:07:02.107Z,100.00
2023-03-26T06:09:30.429Z,100.00
2023-03-26T06:11:58.871Z,100.00
2023-03-26T06:14:27.270Z,100.00
2023-03-26T06:16:57.654Z,100.00
2023-03-26T06:19:25.911Z,100.00
2023-03-26T06:21:54.388Z,100.00
2023-03-26T06:24:22.766Z,100.00
2023-03-26T06:26:51.436Z,100.00
2023-03-26T06:29:19.900Z,100.00
2023-03-26T06:31:48.543Z,100.00
2023-03-26T06:34:19.360Z,100.00
2023-03-26T06:36:48.876Z,100.00
2023-03-26T06:39:17.244Z,100.00
2023-03-26T06:41:46.216Z,100.00
2023-03-26T06:44:15.018Z,100.00
2023-03-26T06:46:45.460Z,100.00
2023-03-26T06:49:14.209Z,100.00
2023-03-26T06:51:43.628Z,100.00
2023-03-26T06:54:12.387Z,99.12
2023-03-26T06:56:42.228Z,98.39
2023-03-26T06:59:11.850Z,97.43
2023-03-26T07:01:52.175Z,96.88
2023-03-26T07:04:35.827Z,96.38
2023-03-26T07:07:28.201Z,96.03
2023-03-26T07:09:58.902Z,95.21
2023-03-26T07:12:27.978Z,93.55
2023-03-26T07:14:57.453Z,91.25
2023-03-26T07:17:27.422Z,92.12
2023-03-26T07:19:55.593Z,91.88
2023-03-26T07:22:25.328Z,89.86
2023-03-26T07:24:56.382Z,90.50
2023-03-26T07:27:54.120Z,89.71
2023-03-26T07:33:53.867Z,87.88
2023-03-26T07:36:25.012Z,87.78
2023-03-26T07:39:40.684Z,86.71
2023-03-26T07:43:01.779Z,85.40
2023-03-26T07:45:41.408Z,84.09
2023-03-26T07:48:18.935Z,84.93
2023-03-26T07:50:48.555Z,84.14
2023-03-26T07:53:20.032Z,85.14
2023-03-26T08:18:44.844Z,74.06
2023-03-26T08:21:22.046Z,73.17
2023-03-26T08:23:59.269Z,74.83
2023-03-26T08:26:39.507Z,73.37
2023-03-26T08:29:29.081Z,72.08
2023-03-26T08:31:58.129Z,69.91
2023-03-26T08:34:26.135Z,66.98
2023-03-26T08:36:53.990Z,61.53
2023-03-26T08:39:22.670Z,62.68
2023-03-26T08:42:09.024Z,64.16
2023-03-26T08:45:08.887Z,64.24
2023-03-26T08:47:59.401Z,65.59
2023-03-26T08:51:14.704Z,57.61
2023-03-26T08:54:33.364Z,52.63
2023-03-26T08:57:04.141Z,56.12
2023-03-26T08:59:53.623Z,56.23
2023-03-26T09:02:46.739Z,56.31
2023-03-26T09:05:55.077Z,54.57
2023-03-26T09:11:56.684Z,56.38
2023-03-26T09:14:25.320Z,56.59
2023-03-26T09:16:59.305Z,55.78
2023-03-26T09:19:49.488Z,57.35
2023-03-26T09:22:34.635Z,57.53
2023-03-26T09:25:31.442Z,57.37
2023-03-26T09:28:05.646Z,52.00
2023-03-26T09:31:08.312Z,49.15
2023-03-26T09:33:56.447Z,45.96
2023-03-26T09:36:57.424Z,45.21
2023-03-26T09:39:33.520Z,44.33
2023-03-26T09:42:04.030Z,45.12
2023-03-26T09:44:34.910Z,48.25
2023-03-26T09:47:21.758Z,51.96
2023-03-26T09:50:17.817Z,55.19
2023-03-26T09:53:07.214Z,56.29
2023-03-26T09:56:05.882Z,56.71
2023-03-26T09:58:46.255Z,56.84
2023-03-26T10:01:35.832Z,57.68
2023-03-26T10:04:07.283Z,58.51
2023-03-26T10:06:39.677Z,54.80
2023-03-26T10:09:20.746Z,55.26
2023-03-26T10:12:07.190Z,56.76
2023-03-26T10:14:46.576Z,57.17
2023-03-26T10:17:33.898Z,55.80
2023-03-26T10:20:28.916Z,56.04
2023-03-26T10:23:34.361Z,57.08
2023-03-26T10:26:22.568Z,50.56
2023-03-26T10:29:04.758Z,47.66
2023-03-26T10:31:39.406Z,48.64
2023-03-26T10:34:50.098Z,50.97
2023-03-26T10:37:36.771Z,51.46
2023-03-26T10:40:43.076Z,51.90
2023-03-26T10:43:24.281Z,48.67
2023-03-26T10:46:14.633Z,50.73
2023-03-26T10:49:24.487Z,43.99
2023-03-26T10:51:59.077Z,45.73
2023-03-26T10:54:44.575Z,44.05
2023-03-26T10:57:24.373Z,44.22
2023-03-26T11:00:00.473Z,45.10
2023-03-26T11:02:44.977Z,43.95
2023-03-26T11:05:59.036Z,42.87
2023-03-26T11:08:31.688Z,40.83
2023-03-26T11:11:22.016Z,38.29
2023-03-26T11:14:08.531Z,39.84
2023-03-26T11:16:58.295Z,38.78
2023-03-26T11:19:38.894Z,37.56
2023-03-26T11:22:24.852Z,37.62
2023-03-26T11:25:06.951Z,37.70
2023-03-26T11:27:48.499Z,38.98
2023-03-26T11:30:35.803Z,39.22
2023-03-26T11:33:08.150Z,38.02
2023-03-26T11:35:40.792Z,37.59
2023-03-26T11:38:18.952Z,37.90
2023-03-26T11:40:51.154Z,37.29
2023-03-26T11:43:28.075Z,35.97
2023-03-26T11:45:59.511Z,36.01
2023-03-26T11:48:46.321Z,36.08
2023-03-26T11:51:25.514Z,35.40
2023-03-26T11:53:54.641Z,34.82
2023-03-26T11:56:26.084Z,35.69
2023-03-26T11:59:55.823Z,34.95
2023-03-26T12:02:38.546Z,34.52
2023-03-26T12:05:16.276Z,36.13
2023-03-26T12:07:52.651Z,34.06
2023-03-26T12:10:35.254Z,34.71
2023-03-26T12:13:26.769Z,34.05
2023-03-26T12:16:01.316Z,34.88
2023-03-26T12:18:29.370Z,33.71
2023-03-26T12:21:13.239Z,34.67
2023-03-26T12:23:58.479Z,33.82
2023-03-26T12:26:46.494Z,33.66
2023-03-26T12:29:17.954Z,32.36
2023-03-26T12:31:52.371Z,32.91
2023-03-26T12:34:22.553Z,33.90
2023-03-26T12:37:01.099Z,33.58
2023-03-26T12:40:10.521Z,33.77
2023-03-26T12:44:50.754Z,33.50
2023-03-26T12:45:23.245Z,34.44
2023-03-26T12:48:03.551Z,31.50
2023-03-26T12:51:09.215Z,33.06
2023-03-26T12:53:49.001Z,33.46
2023-03-26T12:56:40.252Z,33.03
2023-03-26T12:59:41.745Z,33.48
2023-03-26T13:02:09.666Z,34.21
2023-03-26T13:04:58.640Z,34.17
2023-03-26T13:07:48.172Z,34.93
2023-03-26T13:10:35.243Z,35.69
2023-03-26T13:13:38.612Z,36.44
2023-03-26T13:16:22.423Z,35.62
2023-03-26T13:18:54.288Z,36.31
2023-03-26T13:21:39.736Z,37.05
2023-03-26T13:24:34.801Z,36.74
2023-03-26T13:27:14.923Z,36.47
2023-03-26T13:29:57.768Z,37.28
2023-03-26T13:32:50.714Z,36.39
2023-03-26T13:35:28.649Z,35.92
2023-03-26T13:38:07.648Z,36.23
2023-03-26T13:40:56.013Z,36.61
2023-03-26T13:43:30.518Z,36.64
2023-03-26T13:45:58.680Z,36.63
2023-03-26T13:48:34.803Z,36.85
2023-03-26T13:51:16.176Z,36.98
2023-03-26T13:53:53.248Z,36.26
2023-03-26T13:56:29.672Z,36.70
2023-03-26T13:59:09.017Z,37.94
2023-03-26T14:01:43.909Z,37.22
2023-03-26T14:04:43.951Z,36.33
2023-03-26T14:07:15.855Z,35.79
2023-03-26T14:09:48.335Z,34.02
2023-03-26T14:12:32.542Z,35.58
2023-03-26T14:15:06.770Z,35.70
2023-03-26T14:18:00.620Z,36.92
2023-03-26T14:20:51.664Z,37.40
2023-03-26T14:23:37.840Z,38.84
2023-03-26T14:26:43.621Z,38.84
2023-03-26T14:29:39.121Z,38.71
2023-03-26T14:32:43.010Z,37.45
2023-03-26T14:35:35.804Z,37.71
2023-03-26T14:38:52.358Z,38.66
2023-03-26T14:41:33.646Z,39.40
2023-03-26T14:44:10.652Z,40.19
2023-03-26T14:46:41.402Z,41.23
2023-03-26T14:49:51.920Z,41.47
2023-03-26T14:52:41.958Z,40.61
2023-03-26T14:55:28.251Z,39.36
2023-03-26T14:58:31.321Z,39.58
2023-03-26T15:01:20.811Z,39.42
2023-03-26T15:04:13.419Z,39.62
2023-03-26T15:06:56.754Z,40.74
2023-03-26T15:09:43.321Z,40.23
2023-03-26T15:12:37.189Z,40.75
2023-03-26T15:15:29.667Z,40.83
2023-03-26T15:18:19.906Z,41.21
2023-03-26T15:21:15.602Z,41.75
2023-03-26T15:23:55.952Z,40.50
2023-03-26T15:26:30.758Z,41.11
2023-03-26T15:29:56.576Z,41.18
2023-03-26T15:32:33.614Z,41.10
2023-03-26T15:35:23.908Z,42.07
2023-03-26T15:38:23.898Z,42.28
2023-03-26T15:40:52.078Z,42.08
2023-03-26T15:43:26.705Z,42.66
2023-03-26T15:46:19.586Z,42.74
2023-03-26T15:49:03.855Z,42.86
2023-03-26T16:04:14.716Z,45.32
2023-03-26T16:06:57.329Z,45.32
2023-03-26T16:09:47.521Z,45.27
2023-03-26T16:12:16.348Z,45.63
2023-03-26T16:15:04.077Z,46.44
2023-03-26T16:18:04.131Z,45.28
2023-03-26T16:20:50.811Z,45.39
2023-03-26T16:23:24.617Z,46.02
2023-03-26T16:25:57.195Z,45.30
2023-03-26T16:28:48.238Z,46.30
2023-03-26T16:31:36.387Z,46.86
2023-03-26T16:34:09.284Z,47.01
2023-03-26T16:36:43.097Z,47.55
2023-03-26T16:39:50.033Z,48.33
2023-03-26T16:42:32.008Z,49.26
2023-03-26T16:44:59.901Z,48.13
2023-03-26T16:47:44.825Z,48.79
2023-03-26T16:50:35.827Z,49.78
2023-03-26T16:53:29.633Z,49.82
2023-03-26T16:56:12.727Z,50.35
2023-03-26T16:58:40.995Z,50.02
2023-03-26T17:01:27.832Z,50.54
2023-03-26T17:04:17.258Z,49.91
2023-03-26T17:07:14.069Z,50.69
2023-03-26T17:10:08.664Z,50.06
2023-03-26T17:12:53.331Z,49.81
2023-03-26T17:15:46.203Z,48.91
2023-03-26T17:18:14.235Z,48.96
2023-03-26T17:21:12.320Z,49.89
2023-03-26T17:23:55.385Z,49.93
2023-03-26T17:26:47.043Z,51.21
2023-03-26T17:29:27.437Z,50.11
2023-03-26T17:32:08.974Z,51.01
2023-03-26T17:34:49.265Z,52.43
2023-03-26T17:37:18.977Z,51.25
2023-03-26T17:39:47.317Z,51.71
2023-03-26T17:42:27.520Z,51.56
2023-03-26T17:44:57.748Z,51.47
2023-03-26T17:47:33.416Z,52.26
2023-03-26T17:50:13.539Z,51.31
2023-03-26T17:53:07.466Z,52.31
2023-03-26T17:55:39.352Z,51.89
2023-03-26T17:58:20.508Z,52.01
2023-03-26T18:01:02.652Z,52.07
2023-03-26T18:03:40.702Z,52.01
2023-03-26T18:06:18.330Z,51.40
2023-03-26T18:09:05.978Z,50.66
2023-03-26T18:12:11.503Z,50.44
2023-03-26T18:15:21.472Z,50.83
2023-03-26T18:18:02.907Z,51.42
2023-03-26T18:20:32.493Z,51.59
2023-03-26T18:23:10.011Z,53.23
2023-03-26T18:25:41.092Z,53.69
2023-03-26T18:28:14.271Z,54.02
2023-03-26T18:30:48.599Z,53.66
2023-03-26T18:33:17.175Z,54.12
2023-03-26T18:35:52.108Z,55.00
2023-03-26T18:38:34.986Z,54.90
2023-03-26T18:41:08.535Z,55.37
2023-03-26T18:43:44.442Z,55.24
2023-03-26T18:46:14.971Z,55.23
2023-03-26T18:48:44.315Z,55.22
2023-03-26T18:51:13.329Z,55.34
2023-03-26T18:53:50.273Z,55.70
2023-03-26T18:56:27.671Z,55.16
2023-03-26T18:58:58.956Z,55.14
2023-03-26T19:01:33.331Z,55.11
2023-03-26T19:04:05.903Z,56.09
2023-03-26T19:06:40.068Z,56.54
2023-03-26T19:09:30.269Z,56.89
2023-03-26T19:12:15.716Z,57.07
2023-03-26T19:15:09.427Z,59.15
2023-03-26T19:17:44.479Z,60.21
2023-03-26T19:20:37.153Z,59.76
2023-03-26T19:23:09.120Z,59.09
2023-03-26T19:25:44.251Z,58.88
2023-03-26T19:28:29.154Z,57.78
2023-03-26T19:31:06.542Z,58.16
2023-03-26T19:33:39.741Z,60.89
2023-03-26T19:36:19.551Z,60.17
2023-03-26T19:38:53.559Z,62.13
2023-03-26T19:41:31.241Z,60.76
2023-03-26T19:44:02.028Z,65.33
2023-03-26T19:46:34.338Z,63.02
2023-03-26T19:49:46.447Z,60.89
2023-03-26T19:52:41.430Z,64.94
2023-03-26T19:55:21.443Z,62.76
2023-03-26T19:57:49.740Z,64.72
2023-03-26T20:00:19.194Z,67.16
2023-03-26T20:02:48.879Z,72.39
2023-03-26T20:05:26.314Z,79.07
2023-03-26T20:07:58.405Z,84.83
2023-03-26T20:10:27.206Z,88.78
2023-03-26T20:12:55.827Z,91.87
2023-03-26T20:15:26.379Z,93.63
2023-03-26T20:17:55.307Z,98.32
2023-03-26T20:20:27.690Z,100.00
2023-03-26T20:22:56.033Z,100.00
2023-03-26T20:25:30.973Z,100.00
2023-03-26T20:28:02.557Z,100.00
2023-03-26T20:30:37.848Z,100.00
2023-03-26T20:33:12.065Z,100.00
2023-03-26T20:35:42.933Z,100.00
2023-03-26T20:38:12.014Z,100.00
2023-03-26T20:40:40.350Z,100.00
2023-03-26T20:43:12.527Z,100.00
2023-03-26T20:45:41.157Z,100.00
2023-03-26T20:48:10.617Z,100.00
2023-03-26T20:51:01.855Z,100.00
2023-03-26T20:53:30.585Z,100.00
2023-03-26T20:55:58.480Z,100.00
2023-03-26T20:58:31.463Z,100.00
2023-03-26T21:01:02.245Z,100.00
2023-03-26T21:03:30.505Z,100.00
2023-03-26T21:06:06.538Z,100.00
2023-03-26T21:08:35.445Z,100.00
2023-03-26T21:11:05.584Z,100.00
2023-03-26T21:13:40.177Z,100.00
2023-03-26T21:16:11.207Z,100.00
2023-03-26T21:18:39.932Z,100.00
2023-03-26T21:21:37.105Z,100.00
2023-03-26T21:24:15.243Z,100.00
2023-03-26T21:27:26.520Z,100.00
2023-03-26T21:29:58.272Z,100.00
2023-03-26T21:32:26.920Z,100.00
2023-03-26T21:34:59.176Z,100.00
2023-03-26T21:37:28.131Z,100.00
2023-03-26T21:39:56.785Z,100.00
2023-03-26T21:42:29.266Z,100.00
2023-03-26T21:44:57.819Z,100.00
2023-03-26T21:47:26.475Z,100.00
2023-03-26T21:49:55.524Z,100.00
2023-03-26T21:52:24.650Z,100.00
2023-03-26T21:54:53.005Z,100.00
2023-03-26T21:57:55.019Z,100.00
2023-03-26T22:00:42.824Z,100.00
2023-03-26T22:03:33.253Z,100.00
2023-03-26T22:06:09.581Z,100.00
2023-03-26T22:08:40.838Z,100.00
2023-03-26T22:11:11.371Z,100.00
2023-03-26T22:13:39.787Z,100.00
2023-03-26T22:16:10.762Z,100.00
2023-03-26T22:18:39.025Z,100.00
2023-03-26T22:21:07.192Z,100.00
2023-03-26T22:23:36.762Z,100.00
2023-03-26T22:26:06.038Z,100.00
2023-03-26T22:28:34.397Z,100.00
2023-03-26T22:31:08.881Z,100.00
2023-03-26T22:33:40.177Z,100.00
2023-03-26T22:36:22.100Z,100.00
2023-03-26T22:38:54.162Z,100.00
2023-03-26T22:41:22.851Z,100.00
2023-03-26T22:43:54.786Z,100.00
2023-03-26T22:46:23.800Z,100.00
2023-03-26T22:48:51.796Z,100.00
2023-03-26T22:51:19.686Z,100.00
2023-03-26T22:53:47.898Z,100.00
2023-03-26T22:56:17.182Z,100.00
2023-03-26T22:58:45.113Z,100.00
2023-03-26T23:01:17.985Z,100.00
2023-03-26T23:03:46.696Z,100.00
2023-03-26T23:06:16.207Z,100.00
2023-03-26T23:08:44.776Z,100.00
2023-03-26T23:11:15.165Z,100.00
2023-03-26T23:13:45.447Z,100.00
2023-03-26T23:16:14.339Z,100.00
2023-03-26T23:18:43.126Z,100.00
2023-03-26T23:21:19.707Z,100.00
2023-03-26T23:23:49.836Z,100.00
2023-03-26T23:26:18.170Z,100.00
2023-03-26T23:28:46.203Z,100.00
2023-03-26T23:31:14.377Z,100.00
2023-03-26T23:33:51.501Z,100.00
2023-03-26T23:36:23.688Z,100.00
2023-03-26T23:38:53.094Z,100.00
2023-03-26T23:41:23.440Z,100.00
2023-03-26T23:43:55.597Z,100.00
2023-03-26T23:46:25.803Z,100.00
2023-03-26T23:48:55.109Z,100.00
2023-03-26T23:51:24.196Z,100.00
2023-03-26T23:53:52.794Z,100.00
2023-03-26T23:56:21.197Z,100.00
2023-03-26T23:58:49.211Z,100.00
